Bei Facebook empfehlenBei Twitter postenGoogle plusPinterest

Das Wetter im Erzgebirge am 26.08.2016

Wetter und Klima am 26.08.2016 Holzhau im Erzgebirge (630m ü.NN)
Letzte gemessene Temperatur und Uhrzeit der Messung23:45:00 Uhr16.10 °C
Temperatur (Maximum / Höchstwert) und Uhrzeit der Messung16:15:00 Uhr27.50 °C
Temperatur (Minimum / Tiefstwert) und Uhrzeit der Messung06:45:0015.10 °C
Errechneter Absolutwert der Temperaturschwankungen zwischen Tmin und Tmax des Tages12.40 K
Errechnete Tagesmitteltemperatur20.40729 °C
Gesamt - Niederschlag des Tages (in flüssiger Form)0.00 Liter / m²
Luftdruck (Maximum / Höchstwert) und Zeitpunkt der Messung23:30:00 Uhr1018.40 hPa
Luftdruck (Minimum / Tiefstwert) und Zeitpunkt der Messung08:45:00 Uhr1017.20 hPa
Errechneter Absolutwert der Luftdruckschwankungen des Tages1.20 hPa
Höchste gemessene Windgeschwindigkeit und Uhrzeit der Messung23:45:00 Uhr0.00 km/h
Errechnete Windhäufigkeit in Relation zu den Messwerten des Tages0.00000 %
Niedrigste Windkühle (Windchill) und Zeitpunkt der Messung06:45:00 Uhr15.10 °C
Taupunkt (Maximum / Höchstwert) und Uhrzeit der Messung17:15:00 Uhr15.40 °C
Taupunkt (Minimum / Tiefstwert) und Uhrzeit der Messung01:00:0010.40 °C
Anzahl der automatisch eingelesenen Messwerte 96

Detaillierte Wetter- und Klima- Messwerte für den 26.08.2016 in Holzhau im Erzgebirge (630m ü.NN)
ZeitTemperaturLuftdruckRel. LuftfeuchteWindWindrichtungWindchillTaupunktNiederschlag l/m²
23:45:0016.10 °C1018.30 hPa75.00 %11.70 °C 
23:30:0016.00 °C1018.40 hPa76.00 %11.80 °C 
23:15:0015.90 °C1018.40 hPa76.00 %11.70 °C 
23:00:0015.80 °C1018.40 hPa76.00 %11.60 °C 
22:45:0015.90 °C1018.30 hPa76.00 %11.70 °C 
22:30:0015.90 °C1018.20 hPa76.00 %11.70 °C 
22:15:0015.80 °C1018.20 hPa75.00 %11.40 °C 
22:00:0016.10 °C1018.30 hPa74.00 %11.50 °C 
21:45:0016.60 °C1018.30 hPa74.00 %12.00 °C 
21:30:0016.80 °C1018.20 hPa73.00 %11.90 °C 
21:15:0017.00 °C1018.00 hPa72.00 %11.90 °C 
21:00:0017.40 °C1018.20 hPa70.00 %11.90 °C 
20:45:0018.20 °C1018.10 hPa68.00 %12.20 °C 
20:30:0018.90 °C1018.30 hPa67.00 %12.60 °C 
20:15:0019.50 °C1018.00 hPa64.00 %12.50 °C 
20:00:0020.20 °C1017.90 hPa62.00 %12.70 °C 
19:45:0021.40 °C1017.70 hPa59.00 %13.10 °C 
19:30:0022.60 °C1017.80 hPa56.00 %13.40 °C 
19:15:0023.90 °C1017.80 hPa53.00 %13.70 °C 
19:00:0024.90 °C1017.90 hPa51.00 %14.10 °C 
18:45:0025.80 °C1017.70 hPa50.00 %14.60 °C 
18:30:0026.20 °C1017.80 hPa49.00 %14.60 °C 
18:15:0026.40 °C1018.00 hPa49.00 %14.80 °C 
18:00:0026.80 °C1018.00 hPa47.00 %14.50 °C 
17:45:0026.80 °C1018.00 hPa48.00 %14.90 °C 
17:30:0027.10 °C1017.90 hPa47.00 %14.80 °C 
17:15:0027.40 °C1017.90 hPa48.00 %15.40 °C 
17:00:0027.30 °C1018.10 hPa47.00 %15.00 °C 
16:45:0027.10 °C1017.90 hPa47.00 %14.80 °C 
16:30:0027.10 °C1017.90 hPa47.00 %14.80 °C 
16:15:0027.50 °C1018.00 hPa47.00 %15.20 °C 
16:00:0027.40 °C1017.80 hPa47.00 %15.10 °C 
15:45:0026.90 °C1017.90 hPa46.00 %14.30 °C 
15:30:0026.90 °C1017.90 hPa46.00 %14.30 °C 
15:15:0026.60 °C1018.10 hPa46.00 %14.00 °C 
15:00:0026.60 °C1017.90 hPa45.00 %13.70 °C 
14:45:0026.60 °C1017.90 hPa46.00 %14.00 °C 
14:30:0026.30 °C1017.80 hPa48.00 %14.40 °C 
14:15:0026.10 °C1018.00 hPa50.00 %14.90 °C 
14:00:0025.60 °C1018.20 hPa47.00 %13.50 °C 
13:45:0025.50 °C1018.00 hPa48.00 %13.70 °C 
13:30:0025.50 °C1017.90 hPa51.00 %14.60 °C 
13:15:0025.10 °C1018.00 hPa50.00 %13.90 °C 
13:00:0025.10 °C1018.00 hPa51.00 %14.30 °C 
12:45:0024.90 °C1017.90 hPa52.00 %14.40 °C 
12:30:0024.70 °C1017.90 hPa55.00 %15.10 °C 
12:15:0024.10 °C1017.70 hPa54.00 %14.20 °C 
12:00:0023.90 °C1017.60 hPa55.00 %14.30 °C 
11:45:0023.60 °C1017.90 hPa55.00 %14.00 °C 
11:30:0023.50 °C1017.80 hPa57.00 %14.50 °C 
11:15:0023.40 °C1017.80 hPa58.00 %14.70 °C 
11:00:0023.00 °C1018.00 hPa61.00 %15.10 °C 
10:45:0022.40 °C1018.00 hPa62.00 %14.80 °C 
10:30:0022.10 °C1017.90 hPa63.00 %14.70 °C 
10:15:0021.90 °C1017.90 hPa64.00 %14.80 °C 
10:00:0021.40 °C1017.70 hPa66.00 %14.80 °C 
09:45:0021.10 °C1017.70 hPa67.00 %14.70 °C 
09:30:0020.60 °C1017.70 hPa69.00 %14.70 °C 
09:15:0020.10 °C1017.70 hPa70.00 %14.50 °C 
09:00:0019.80 °C1017.50 hPa71.00 %14.40 °C 
08:45:0019.30 °C1017.20 hPa72.00 %14.10 °C 
08:30:0018.90 °C1017.30 hPa73.00 %14.00 °C 
08:15:0018.50 °C1017.50 hPa74.00 %13.80 °C 
08:00:0018.10 °C1017.50 hPa75.00 %13.60 °C 
07:45:0017.30 °C1017.50 hPa78.00 %13.40 °C 
07:30:0016.20 °C1017.40 hPa79.00 %12.60 °C 
07:15:0015.70 °C1017.50 hPa79.00 %12.10 °C 
07:00:0015.30 °C1017.40 hPa80.00 %11.90 °C 
06:45:0015.10 °C1017.50 hPa79.00 %11.50 °C 
06:30:0015.20 °C1017.40 hPa79.00 %11.60 °C 
06:15:0015.40 °C1017.30 hPa79.00 %11.80 °C 
06:00:0015.30 °C1017.30 hPa79.00 %11.70 °C 
05:45:0015.30 °C1017.50 hPa79.00 %11.70 °C 
05:30:0015.30 °C1017.50 hPa78.00 %11.50 °C 
05:15:0015.50 °C1017.50 hPa78.00 %11.70 °C 
05:00:0015.60 °C1017.50 hPa77.00 %11.60 °C 
04:45:0015.90 °C1017.50 hPa76.00 %11.70 °C 
04:30:0016.20 °C1017.50 hPa76.00 %12.00 °C 
04:15:0016.30 °C1017.40 hPa76.00 %12.10 °C 
04:00:0016.30 °C1017.60 hPa75.00 %11.90 °C 
03:45:0016.50 °C1017.40 hPa74.00 %11.90 °C 
03:30:0016.60 °C1017.60 hPa74.00 %12.00 °C 
03:15:0016.70 °C1017.70 hPa73.00 %11.80 °C 
03:00:0016.60 °C1017.50 hPa72.00 %11.50 °C 
02:45:0016.60 °C1017.60 hPa71.00 %11.30 °C 
02:30:0016.50 °C1017.50 hPa71.00 %11.20 °C 
02:15:0016.50 °C1017.80 hPa70.00 %11.00 °C 
02:00:0016.60 °C1017.80 hPa69.00 %10.90 °C 
01:45:0016.70 °C1017.80 hPa68.00 %10.80 °C 
01:30:0016.60 °C1017.80 hPa68.00 %10.70 °C 
01:15:0016.90 °C1018.00 hPa66.00 %10.50 °C 
01:00:0017.30 °C1017.90 hPa64.00 %10.40 °C 
00:45:0017.60 °C1018.00 hPa64.00 %10.70 °C 
00:30:0017.80 °C1018.10 hPa63.00 %10.70 °C 
00:15:0017.90 °C1018.20 hPa63.00 %10.80 °C 
00:00:0017.90 °C1018.30 hPa63.00 %10.80 °C 

Permanenter Link zu dieser Seite: Wetter im Erzgebirge am 26.08.2016
Performance-Info: Die Erstellung der Seite / Statistik(en) / Tabelle(n) erforderte 5 Datenbankserver-Abfrage(n) und dauerte 98 Millisekunden. (Dieser Messwert ist von der Gesamt-Auslastung des Servers abhängig.)
Erzgebirge - Wetter | Erzgebirge - Wetter (Mobilgeräte) | Komplette Klimadatenbank